sensor_id;sensor_type;location;lat;lon;timestamp;pressure;altitude;pressure_sealevel;temperature;humidity
15750;BME280;7976;52.526;13.326;2023-03-22T00:01:26;100744.19;;;11.40;100.00
15750;BME280;7976;52.526;13.326;2023-03-22T00:03:56;100749.41;;;11.40;100.00
15750;BME280;7976;52.526;13.326;2023-03-22T00:06:24;100739.91;;;11.37;100.00
15750;BME280;7976;52.526;13.326;2023-03-22T00:08:53;100738.25;;;11.35;100.00
15750;BME280;7976;52.526;13.326;2023-03-22T00:11:21;100746.34;;;11.29;100.00
15750;BME280;7976;52.526;13.326;2023-03-22T00:13:50;100735.28;;;11.22;100.00
15750;BME280;7976;52.526;13.326;2023-03-22T00:16:18;100748.44;;;11.21;100.00
15750;BME280;7976;52.526;13.326;2023-03-22T00:18:45;100738.97;;;11.17;100.00
15750;BME280;7976;52.526;13.326;2023-03-22T00:21:14;100734.66;;;11.16;100.00
15750;BME280;7976;52.526;13.326;2023-03-22T00:23:41;100735.69;;;11.12;100.00
15750;BME280;7976;52.526;13.326;2023-03-22T00:26:11;100727.06;;;11.10;100.00
15750;BME280;7976;52.526;13.326;2023-03-22T00:28:39;100734.91;;;11.10;100.00
15750;BME280;7976;52.526;13.326;2023-03-22T00:31:07;100724.44;;;11.10;100.00
15750;BME280;7976;52.526;13.326;2023-03-22T00:33:35;100727.13;;;11.08;100.00
15750;BME280;7976;52.526;13.326;2023-03-22T00:36:06;100715.66;;;11.11;100.00
15750;BME280;7976;52.526;13.326;2023-03-22T00:38:33;100711.28;;;11.11;100.00
15750;BME280;7976;52.526;13.326;2023-03-22T00:41:06;100716.47;;;11.13;100.00
15750;BME280;7976;52.526;13.326;2023-03-22T00:43:34;100710.28;;;11.14;100.00
15750;BME280;7976;52.526;13.326;2023-03-22T00:46:02;100713.78;;;11.14;100.00
15750;BME280;7976;52.526;13.326;2023-03-22T00:48:29;100712.91;;;11.14;100.00
15750;BME280;7976;52.526;13.326;2023-03-22T00:50:56;100710.34;;;11.12;100.00
15750;BME280;7976;52.526;13.326;2023-03-22T00:53:24;100712.13;;;11.12;100.00
15750;BME280;7976;52.526;13.326;2023-03-22T00:55:54;100708.78;;;11.08;100.00
15750;BME280;7976;52.526;13.326;2023-03-22T00:58:21;100714.25;;;11.02;100.00
15750;BME280;7976;52.526;13.326;2023-03-22T01:00:50;100716.00;;;11.02;100.00
15750;BME280;7976;52.526;13.326;2023-03-22T01:03:19;100719.50;;;11.02;100.00
15750;BME280;7976;52.526;13.326;2023-03-22T01:05:52;100715.13;;;11.03;100.00
15750;BME280;7976;52.526;13.326;2023-03-22T01:08:27;100705.59;;;11.00;100.00
15750;BME280;7976;52.526;13.326;2023-03-22T01:10:59;100708.28;;;10.99;100.00
15750;BME280;7976;52.526;13.326;2023-03-22T01:13:31;100702.97;;;11.00;100.00
15750;BME280;7976;52.526;13.326;2023-03-22T01:16:10;100704.72;;;11.01;100.00
15750;BME280;7976;52.526;13.326;2023-03-22T01:18:48;100692.56;;;10.99;100.00
15750;BME280;7976;52.526;13.326;2023-03-22T01:21:19;100690.69;;;11.02;100.00
15750;BME280;7976;52.526;13.326;2023-03-22T01:23:54;100687.28;;;11.00;100.00
15750;BME280;7976;52.526;13.326;2023-03-22T01:26:28;100689.06;;;11.00;100.00
15750;BME280;7976;52.526;13.326;2023-03-22T01:28:57;100675.97;;;11.00;100.00
15750;BME280;7976;52.526;13.326;2023-03-22T01:31:27;100675.72;;;11.06;100.00
15750;BME280;7976;52.526;13.326;2023-03-22T01:34:10;100677.53;;;11.04;100.00
15750;BME280;7976;52.526;13.326;2023-03-22T01:36:50;100672.28;;;11.04;100.00
15750;BME280;7976;52.526;13.326;2023-03-22T01:39:32;100674.91;;;11.04;100.00
15750;BME280;7976;52.526;13.326;2023-03-22T01:42:15;100672.44;;;11.01;100.00
15750;BME280;7976;52.526;13.326;2023-03-22T01:45:36;100665.38;;;11.03;100.00
15750;BME280;7976;52.526;13.326;2023-03-22T01:48:36;100668.06;;;11.01;100.00
15750;BME280;7976;52.526;13.326;2023-03-22T01:51:14;100667.19;;;11.01;100.00
15750;BME280;7976;52.526;13.326;2023-03-22T01:54:12;100661.16;;;10.99;100.00
15750;BME280;7976;52.526;13.326;2023-03-22T01:57:00;100656.13;;;10.94;100.00
15750;BME280;7976;52.526;13.326;2023-03-22T02:00:11;100658.00;;;10.91;99.91
15750;BME280;7976;52.526;13.326;2023-03-22T02:02:58;100651.84;;;10.92;100.00
15750;BME280;7976;52.526;13.326;2023-03-22T02:05:35;100661.41;;;10.93;99.92
15750;BME280;7976;52.526;13.326;2023-03-22T02:08:03;100656.25;;;10.91;100.00
15750;BME280;7976;52.526;13.326;2023-03-22T02:10:48;100655.31;;;10.92;100.00
15750;BME280;7976;52.526;13.326;2023-03-22T02:13:36;100655.50;;;10.88;99.86
15750;BME280;7976;52.526;13.326;2023-03-22T02:16:49;100655.72;;;10.82;100.00
15750;BME280;7976;52.526;13.326;2023-03-22T02:19:55;100650.63;;;10.79;99.67
15750;BME280;7976;52.526;13.326;2023-03-22T02:23:13;100647.13;;;10.80;99.92
15750;BME280;7976;52.526;13.326;2023-03-22T02:26:41;100648.69;;;10.84;99.77
15750;BME280;7976;52.526;13.326;2023-03-22T02:29:15;100645.94;;;10.87;99.86
15750;BME280;7976;52.526;13.326;2023-03-22T02:32:16;100648.63;;;10.85;99.86
15750;BME280;7976;52.526;13.326;2023-03-22T02:35:15;100648.69;;;10.84;99.48
15750;BME280;7976;52.526;13.326;2023-03-22T02:41:10;100638.22;;;10.84;99.43
15750;BME280;7976;52.526;13.326;2023-03-22T02:43:50;100633.97;;;10.81;99.38
15750;BME280;7976;52.526;13.326;2023-03-22T02:46:29;100633.09;;;10.81;99.49
15750;BME280;7976;52.526;13.326;2023-03-22T02:49:10;100641.81;;;10.81;99.22
15750;BME280;7976;52.526;13.326;2023-03-22T02:51:45;100641.97;;;10.77;98.99
15750;BME280;7976;52.526;13.326;2023-03-22T02:54:20;100640.28;;;10.76;99.07
15750;BME280;7976;52.526;13.326;2023-03-22T02:56:57;100632.44;;;10.76;99.13
15750;BME280;7976;52.526;13.326;2023-03-22T02:59:28;100631.63;;;10.74;99.06
15750;BME280;7976;52.526;13.326;2023-03-22T03:01:59;100625.44;;;10.76;99.02
15750;BME280;7976;52.526;13.326;2023-03-22T03:04:32;100628.84;;;10.78;98.90
15750;BME280;7976;52.526;13.326;2023-03-22T03:07:07;100623.63;;;10.78;98.87
15750;BME280;7976;52.526;13.326;2023-03-22T03:09:36;100623.03;;;10.70;98.54
15750;BME280;7976;52.526;13.326;2023-03-22T03:12:14;100623.91;;;10.71;98.49
15750;BME280;7976;52.526;13.326;2023-03-22T03:14:44;100628.34;;;10.69;98.42
15750;BME280;7976;52.526;13.326;2023-03-22T03:17:34;100632.84;;;10.65;98.23
15750;BME280;7976;52.526;13.326;2023-03-22T03:20:24;100627.75;;;10.62;98.60
15750;BME280;7976;52.526;13.326;2023-03-22T03:23:08;100633.97;;;10.60;97.89
15750;BME280;7976;52.526;13.326;2023-03-22T03:25:46;100632.34;;;10.56;98.05
15750;BME280;7976;52.526;13.326;2023-03-22T03:28:25;100641.00;;;10.58;98.40
15750;BME280;7976;52.526;13.326;2023-03-22T03:30:59;100641.97;;;10.55;97.92
15750;BME280;7976;52.526;13.326;2023-03-22T03:33:33;100649.03;;;10.53;97.62
15750;BME280;7976;52.526;13.326;2023-03-22T03:36:08;100646.47;;;10.52;97.70
15750;BME280;7976;52.526;13.326;2023-03-22T03:38:45;100636.84;;;10.52;97.80
15750;BME280;7976;52.526;13.326;2023-03-22T03:41:15;100644.78;;;10.51;97.50
15750;BME280;7976;52.526;13.326;2023-03-22T03:43:47;100641.34;;;10.49;97.67
15750;BME280;7976;52.526;13.326;2023-03-22T03:46:14;100635.31;;;10.47;97.39
15750;BME280;7976;52.526;13.326;2023-03-22T03:48:46;100637.94;;;10.47;97.59
15750;BME280;7976;52.526;13.326;2023-03-22T03:51:14;100637.94;;;10.47;97.21
15750;BME280;7976;52.526;13.326;2023-03-22T03:53:41;100622.25;;;10.47;97.29
15750;BME280;7976;52.526;13.326;2023-03-22T03:56:09;100630.75;;;10.52;97.33
15750;BME280;7976;52.526;13.326;2023-03-22T03:58:41;100631.50;;;10.55;97.14
15750;BME280;7976;52.526;13.326;2023-03-22T04:01:09;100628.81;;;10.57;97.12
15750;BME280;7976;52.526;13.326;2023-03-22T04:03:50;100630.59;;;10.56;96.70
15750;BME280;7976;52.526;13.326;2023-03-22T04:06:26;100634.06;;;10.57;96.75
15750;BME280;7976;52.526;13.326;2023-03-22T04:08:58;100621.91;;;10.56;96.62
15750;BME280;7976;52.526;13.326;2023-03-22T04:11:31;100640.28;;;10.54;96.62
15750;BME280;7976;52.526;13.326;2023-03-22T04:14:00;100630.72;;;10.53;96.56
15750;BME280;7976;52.526;13.326;2023-03-22T04:16:29;100629.94;;;10.51;96.59
15750;BME280;7976;52.526;13.326;2023-03-22T04:18:56;100636.84;;;10.52;96.47
15750;BME280;7976;52.526;13.326;2023-03-22T04:21:23;100636.78;;;10.54;96.13
15750;BME280;7976;52.526;13.326;2023-03-22T04:23:56;100636.00;;;10.52;96.39
15750;BME280;7976;52.526;13.326;2023-03-22T04:26:25;100635.91;;;10.55;96.36
15750;BME280;7976;52.526;13.326;2023-03-22T04:29:08;100638.31;;;10.59;96.15
15750;BME280;7976;52.526;13.326;2023-03-22T04:31:40;100635.66;;;10.61;96.08
15750;BME280;7976;52.526;13.326;2023-03-22T04:34:17;100631.16;;;10.64;95.58
15750;BME280;7976;52.526;13.326;2023-03-22T04:36:59;100623.31;;;10.64;95.58
15750;BME280;7976;52.526;13.326;2023-03-22T04:39:29;100626.88;;;10.62;95.40
15750;BME280;7976;52.526;13.326;2023-03-22T04:42:09;100636.50;;;10.61;95.38
15750;BME280;7976;52.526;13.326;2023-03-22T04:44:36;100624.22;;;10.63;95.38
15750;BME280;7976;52.526;13.326;2023-03-22T04:47:04;100625.91;;;10.64;95.05
15750;BME280;7976;52.526;13.326;2023-03-22T04:49:32;100617.22;;;10.64;94.82
15750;BME280;7976;52.526;13.326;2023-03-22T04:51:59;100620.69;;;10.64;95.19
15750;BME280;7976;52.526;13.326;2023-03-22T04:54:33;100625.06;;;10.64;94.76
15750;BME280;7976;52.526;13.326;2023-03-22T04:57:01;100609.47;;;10.61;94.88
15750;BME280;7976;52.526;13.326;2023-03-22T04:59:32;100610.41;;;10.60;95.01
15750;BME280;7976;52.526;13.326;2023-03-22T05:02:00;100609.47;;;10.61;95.09
15750;BME280;7976;52.526;13.326;2023-03-22T05:04:33;100604.19;;;10.62;94.88
15750;BME280;7976;52.526;13.326;2023-03-22T05:07:07;100598.06;;;10.63;94.41
15750;BME280;7976;52.526;13.326;2023-03-22T05:09:42;100597.00;;;10.67;94.34
15750;BME280;7976;52.526;13.326;2023-03-22T05:12:10;100598.66;;;10.70;94.26
15750;BME280;7976;52.526;13.326;2023-03-22T05:15:05;100594.19;;;10.72;94.16
15750;BME280;7976;52.526;13.326;2023-03-22T05:17:35;100600.09;;;10.77;94.09
15750;BME280;7976;52.526;13.326;2023-03-22T05:20:06;100595.66;;;10.79;93.75
15750;BME280;7976;52.526;13.326;2023-03-22T05:22:36;100599.19;;;10.78;93.82
15750;BME280;7976;52.526;13.326;2023-03-22T05:25:08;100593.16;;;10.76;93.52
15750;BME280;7976;52.526;13.326;2023-03-22T05:27:36;100588.88;;;10.75;93.45
15750;BME280;7976;52.526;13.326;2023-03-22T05:30:22;100596.78;;;10.73;93.48
15750;BME280;7976;52.526;13.326;2023-03-22T05:33:03;100595.97;;;10.71;93.19
15750;BME280;7976;52.526;13.326;2023-03-22T05:35:39;100597.75;;;10.71;93.12
15750;BME280;7976;52.526;13.326;2023-03-22T05:38:09;100599.50;;;10.70;93.04
15750;BME280;7976;52.526;13.326;2023-03-22T05:40:39;100601.34;;;10.68;92.78
15750;BME280;7976;52.526;13.326;2023-03-22T05:43:06;100592.50;;;10.71;93.11
15750;BME280;7976;52.526;13.326;2023-03-22T05:45:35;100610.81;;;10.71;92.80
15750;BME280;7976;52.526;13.326;2023-03-22T05:48:11;100598.66;;;10.70;92.68
15750;BME280;7976;52.526;13.326;2023-03-22T05:50:39;100598.53;;;10.73;92.44
15750;BME280;7976;52.526;13.326;2023-03-22T05:53:06;100595.00;;;10.74;92.48
15750;BME280;7976;52.526;13.326;2023-03-22T05:55:43;100587.28;;;10.71;92.70
15750;BME280;7976;52.526;13.326;2023-03-22T05:58:10;100587.34;;;10.69;92.30
15750;BME280;7976;52.526;13.326;2023-03-22T06:00:39;100585.59;;;10.70;92.24
15750;BME280;7976;52.526;13.326;2023-03-22T06:03:24;100586.34;;;10.72;92.34
15750;BME280;7976;52.526;13.326;2023-03-22T06:06:00;100587.94;;;10.76;92.17
15750;BME280;7976;52.526;13.326;2023-03-22T06:08:38;100587.81;;;10.79;91.84
15750;BME280;7976;52.526;13.326;2023-03-22T06:11:06;100592.16;;;10.80;91.71
15750;BME280;7976;52.526;13.326;2023-03-22T06:13:34;100587.63;;;10.83;91.61
15750;BME280;7976;52.526;13.326;2023-03-22T06:16:04;100589.34;;;10.84;91.28
15750;BME280;7976;52.526;13.326;2023-03-22T06:18:31;100586.72;;;10.84;91.25
15750;BME280;7976;52.526;13.326;2023-03-22T06:21:06;100589.41;;;10.83;91.26
15750;BME280;7976;52.526;13.326;2023-03-22T06:23:33;100587.69;;;10.82;91.13
15750;BME280;7976;52.526;13.326;2023-03-22T06:26:00;100588.41;;;10.85;90.99
15750;BME280;7976;52.526;13.326;2023-03-22T06:28:28;100588.25;;;10.90;90.95
15750;BME280;7976;52.526;13.326;2023-03-22T06:30:55;100592.53;;;10.91;91.18
15750;BME280;7976;52.526;13.326;2023-03-22T06:33:34;100590.84;;;10.90;90.93
15750;BME280;7976;52.526;13.326;2023-03-22T06:36:10;100587.31;;;10.91;90.92
15750;BME280;7976;52.526;13.326;2023-03-22T06:38:51;100585.72;;;10.87;91.00
15750;BME280;7976;52.526;13.326;2023-03-22T06:41:18;100592.69;;;10.88;90.77
15750;BME280;7976;52.526;13.326;2023-03-22T06:43:45;100596.03;;;10.91;90.82
15750;BME280;7976;52.526;13.326;2023-03-22T06:46:33;100591.47;;;10.96;90.96
15750;BME280;7976;52.526;13.326;2023-03-22T06:49:08;100607.91;;;11.00;90.50
15750;BME280;7976;52.526;13.326;2023-03-22T06:51:37;100603.47;;;11.00;90.50
15750;BME280;7976;52.526;13.326;2023-03-22T06:54:04;100597.53;;;10.97;90.36
15750;BME280;7976;52.526;13.326;2023-03-22T06:56:31;100607.09;;;10.98;90.69
15750;BME280;7976;52.526;13.326;2023-03-22T06:58:59;100599.25;;;10.98;90.36
15750;BME280;7976;52.526;13.326;2023-03-22T07:01:26;100593.88;;;11.01;90.59
15750;BME280;7976;52.526;13.326;2023-03-22T07:03:53;100605.00;;;11.06;90.39
15750;BME280;7976;52.526;13.326;2023-03-22T07:06:22;100602.09;;;11.13;90.30
15750;BME280;7976;52.526;13.326;2023-03-22T07:08:51;100601.81;;;11.19;90.19
15750;BME280;7976;52.526;13.326;2023-03-22T07:11:23;100599.94;;;11.23;89.70
15750;BME280;7976;52.526;13.326;2023-03-22T07:13:56;100606.72;;;11.27;89.77
15750;BME280;7976;52.526;13.326;2023-03-22T07:16:25;100604.75;;;11.32;89.47
15750;BME280;7976;52.526;13.326;2023-03-22T07:18:56;100607.34;;;11.33;89.57
15750;BME280;7976;52.526;13.326;2023-03-22T07:21:23;100607.13;;;11.38;89.44
15750;BME280;7976;52.526;13.326;2023-03-22T07:23:56;100603.44;;;11.42;89.38
15750;BME280;7976;52.526;13.326;2023-03-22T07:26:26;100592.88;;;11.45;89.41
15750;BME280;7976;52.526;13.326;2023-03-22T07:28:56;100594.41;;;11.49;89.13
15750;BME280;7976;52.526;13.326;2023-03-22T07:31:27;100595.00;;;11.56;89.01
15750;BME280;7976;52.526;13.326;2023-03-22T07:33:58;100598.41;;;11.58;88.50
15750;BME280;7976;52.526;13.326;2023-03-22T07:36:28;100587.06;;;11.57;88.49
15750;BME280;7976;52.526;13.326;2023-03-22T07:38:57;100593.97;;;11.60;88.70
15750;BME280;7976;52.526;13.326;2023-03-22T07:41:31;100581.53;;;11.65;88.15
15750;BME280;7976;52.526;13.326;2023-03-22T07:44:19;100573.47;;;11.69;88.14
15750;BME280;7976;52.526;13.326;2023-03-22T07:46:57;100578.44;;;11.75;88.08
15750;BME280;7976;52.526;13.326;2023-03-22T07:49:30;100570.16;;;11.84;87.72
15750;BME280;7976;52.526;13.326;2023-03-22T07:52:07;100575.78;;;11.95;87.25
15750;BME280;7976;52.526;13.326;2023-03-22T07:54:35;100570.31;;;12.00;87.08
15750;BME280;7976;52.526;13.326;2023-03-22T07:57:05;100568.25;;;12.06;86.76
15750;BME280;7976;52.526;13.326;2023-03-22T07:59:37;100572.22;;;12.15;86.61
15750;BME280;7976;52.526;13.326;2023-03-22T08:02:04;100561.31;;;12.24;86.56
15750;BME280;7976;52.526;13.326;2023-03-22T08:04:39;100563.72;;;12.28;86.10
15750;BME280;7976;52.526;13.326;2023-03-22T08:07:20;100565.88;;;12.37;86.18
15750;BME280;7976;52.526;13.326;2023-03-22T08:09:51;100562.22;;;12.41;85.88
15750;BME280;7976;52.526;13.326;2023-03-22T08:12:21;100564.69;;;12.44;85.62
15750;BME280;7976;52.526;13.326;2023-03-22T08:14:57;100560.69;;;12.54;85.10
15750;BME280;7976;52.526;13.326;2023-03-22T08:17:26;100567.19;;;12.64;84.96
15750;BME280;7976;52.526;13.326;2023-03-22T08:19:55;100576.34;;;12.75;84.30
15750;BME280;7976;52.526;13.326;2023-03-22T08:22:32;100572.66;;;12.79;84.17
15750;BME280;7976;52.526;13.326;2023-03-22T08:25:19;100573.50;;;12.79;83.86
15750;BME280;7976;52.526;13.326;2023-03-22T08:27:46;100565.47;;;12.82;84.07
15750;BME280;7976;52.526;13.326;2023-03-22T08:30:14;100561.00;;;12.84;83.80
15750;BME280;7976;52.526;13.326;2023-03-22T08:32:42;100559.81;;;12.90;84.00
15750;BME280;7976;52.526;13.326;2023-03-22T08:35:10;100556.06;;;12.95;83.77
15750;BME280;7976;52.526;13.326;2023-03-22T08:37:37;100549.66;;;13.01;83.30
15750;BME280;7976;52.526;13.326;2023-03-22T08:40:08;100548.66;;;13.03;82.97
15750;BME280;7976;52.526;13.326;2023-03-22T08:42:44;100545.88;;;13.06;82.99
15750;BME280;7976;52.526;13.326;2023-03-22T08:45:11;100547.34;;;13.12;83.20
15750;BME280;7976;52.526;13.326;2023-03-22T08:47:48;100541.81;;;13.18;82.38
15750;BME280;7976;52.526;13.326;2023-03-22T08:50:17;100538.94;;;13.22;82.43
15750;BME280;7976;52.526;13.326;2023-03-22T08:52:54;100544.88;;;13.26;81.92
15750;BME280;7976;52.526;13.326;2023-03-22T08:55:30;100536.84;;;13.29;82.12
15750;BME280;7976;52.526;13.326;2023-03-22T08:58:14;100534.81;;;13.34;81.89
15750;BME280;7976;52.526;13.326;2023-03-22T09:01:16;100529.00;;;13.44;81.73
15750;BME280;7976;52.526;13.326;2023-03-22T09:03:54;100525.09;;;13.51;81.54
15750;BME280;7976;52.526;13.326;2023-03-22T09:06:22;100515.06;;;13.59;81.14
15750;BME280;7976;52.526;13.326;2023-03-22T09:08:50;100528.72;;;13.66;80.69
15750;BME280;7976;52.526;13.326;2023-03-22T09:11:19;100518.72;;;13.72;80.72
15750;BME280;7976;52.526;13.326;2023-03-22T09:13:49;100527.81;;;13.82;80.12
15750;BME280;7976;52.526;13.326;2023-03-22T09:16:17;100501.94;;;13.91;79.65
15750;BME280;7976;52.526;13.326;2023-03-22T09:18:45;100500.59;;;13.99;79.57
15750;BME280;7976;52.526;13.326;2023-03-22T09:21:15;100502.47;;;14.13;79.41
15750;BME280;7976;52.526;13.326;2023-03-22T09:23:49;100507.28;;;14.20;78.76
15750;BME280;7976;52.526;13.326;2023-03-22T09:26:18;100504.50;;;14.23;78.59
15750;BME280;7976;52.526;13.326;2023-03-22T09:28:52;100499.00;;;14.28;78.30
15750;BME280;7976;52.526;13.326;2023-03-22T09:31:19;100504.00;;;14.32;77.57
15750;BME280;7976;52.526;13.326;2023-03-22T09:33:49;100498.22;;;14.41;77.50
15750;BME280;7976;52.526;13.326;2023-03-22T09:36:17;100495.81;;;14.52;77.07
15750;BME280;7976;52.526;13.326;2023-03-22T09:38:44;100501.16;;;14.66;77.12
15750;BME280;7976;52.526;13.326;2023-03-22T09:41:16;100503.16;;;14.77;76.34
15750;BME280;7976;52.526;13.326;2023-03-22T09:43:49;100500.00;;;14.86;76.65
15750;BME280;7976;52.526;13.326;2023-03-22T09:46:26;100498.59;;;14.94;76.37
15750;BME280;7976;52.526;13.326;2023-03-22T09:48:56;100490.22;;;15.02;76.39
15750;BME280;7976;52.526;13.326;2023-03-22T09:51:38;100493.19;;;15.12;76.16
15750;BME280;7976;52.526;13.326;2023-03-22T09:54:15;100483.03;;;15.20;76.10
15750;BME280;7976;52.526;13.326;2023-03-22T09:56:48;100484.34;;;15.27;75.72
15750;BME280;7976;52.526;13.326;2023-03-22T09:59:25;100475.75;;;15.37;75.61
15750;BME280;7976;52.526;13.326;2023-03-22T10:02:02;100475.81;;;15.51;75.23
15750;BME280;7976;52.526;13.326;2023-03-22T10:04:48;100481.19;;;15.64;74.88
15750;BME280;7976;52.526;13.326;2023-03-22T10:07:27;100467.03;;;15.79;74.25
15750;BME280;7976;52.526;13.326;2023-03-22T10:10:08;100466.34;;;15.89;73.53
15750;BME280;7976;52.526;13.326;2023-03-22T10:12:50;100463.59;;;15.91;73.08
15750;BME280;7976;52.526;13.326;2023-03-22T10:15:28;100465.22;;;15.93;72.89
15750;BME280;7976;52.526;13.326;2023-03-22T10:17:59;100470.94;;;16.00;72.44
15750;BME280;7976;52.526;13.326;2023-03-22T10:20:36;100463.59;;;16.05;72.54
15750;BME280;7976;52.526;13.326;2023-03-22T10:23:11;100459.97;;;16.06;71.52
15750;BME280;7976;52.526;13.326;2023-03-22T10:25:41;100460.09;;;16.04;71.02
15750;BME280;7976;52.526;13.326;2023-03-22T10:28:15;100453.31;;;16.00;70.53
15750;BME280;7976;52.526;13.326;2023-03-22T10:30:49;100438.88;;;16.06;70.47
15750;BME280;7976;52.526;13.326;2023-03-22T10:33:29;100434.50;;;16.19;69.99
15750;BME280;7976;52.526;13.326;2023-03-22T10:36:00;100428.31;;;16.33;69.40
15750;BME280;7976;52.526;13.326;2023-03-22T10:38:29;100425.69;;;16.45;68.37
15750;BME280;7976;52.526;13.326;2023-03-22T10:40:58;100427.25;;;16.49;67.92
15750;BME280;7976;52.526;13.326;2023-03-22T10:43:31;100415.72;;;16.50;68.02
15750;BME280;7976;52.526;13.326;2023-03-22T10:46:03;100413.50;;;16.57;68.44
15750;BME280;7976;52.526;13.326;2023-03-22T10:48:38;100412.34;;;16.61;67.92
15750;BME280;7976;52.526;13.326;2023-03-22T10:51:10;100404.09;;;16.65;67.84
15750;BME280;7976;52.526;13.326;2023-03-22T10:53:46;100411.72;;;16.70;68.17
15750;BME280;7976;52.526;13.326;2023-03-22T10:56:18;100407.50;;;16.67;67.12
15750;BME280;7976;52.526;13.326;2023-03-22T10:58:46;100398.06;;;16.63;67.22
15750;BME280;7976;52.526;13.326;2023-03-22T11:01:24;100400.94;;;16.60;66.95
15750;BME280;7976;52.526;13.326;2023-03-22T11:04:07;100406.22;;;16.60;66.79
15750;BME280;7976;52.526;13.326;2023-03-22T11:06:39;100404.31;;;16.62;66.51
15750;BME280;7976;52.526;13.326;2023-03-22T11:09:14;100409.19;;;16.68;66.29
15750;BME280;7976;52.526;13.326;2023-03-22T11:11:49;100402.09;;;16.69;66.21
15750;BME280;7976;52.526;13.326;2023-03-22T11:14:22;100392.56;;;16.66;66.08
15750;BME280;7976;52.526;13.326;2023-03-22T11:16:54;100403.78;;;16.70;65.90
15750;BME280;7976;52.526;13.326;2023-03-22T11:19:26;100392.94;;;16.74;65.82
15750;BME280;7976;52.526;13.326;2023-03-22T11:21:54;100397.69;;;16.69;66.05
15750;BME280;7976;52.526;13.326;2023-03-22T11:24:25;100396.19;;;16.65;65.61
15750;BME280;7976;52.526;13.326;2023-03-22T11:27:05;100400.81;;;16.62;65.57
15750;BME280;7976;52.526;13.326;2023-03-22T11:29:42;100391.44;;;16.58;65.37
15750;BME280;7976;52.526;13.326;2023-03-22T11:32:25;100400.94;;;16.60;65.19
15750;BME280;7976;52.526;13.326;2023-03-22T11:35:03;100395.31;;;16.65;65.14
15750;BME280;7976;52.526;13.326;2023-03-22T11:37:31;100392.50;;;16.68;65.09
15750;BME280;7976;52.526;13.326;2023-03-22T11:40:00;100390.16;;;16.63;63.83
15750;BME280;7976;52.526;13.326;2023-03-22T11:42:33;100394.69;;;16.61;64.20
15750;BME280;7976;52.526;13.326;2023-03-22T11:45:00;100384.88;;;16.63;63.64
15750;BME280;7976;52.526;13.326;2023-03-22T11:47:36;100385.41;;;16.68;63.55
15750;BME280;7976;52.526;13.326;2023-03-22T11:50:08;100374.72;;;16.70;63.05
15750;BME280;7976;52.526;13.326;2023-03-22T11:52:46;100371.91;;;16.73;62.68
15750;BME280;7976;52.526;13.326;2023-03-22T11:55:15;100364.28;;;16.81;62.22
15750;BME280;7976;52.526;13.326;2023-03-22T11:57:42;100362.78;;;16.89;62.35
15750;BME280;7976;52.526;13.326;2023-03-22T12:00:16;100343.94;;;17.06;62.64
15750;BME280;7976;52.526;13.326;2023-03-22T12:02:49;100350.59;;;17.24;62.43
15750;BME280;7976;52.526;13.326;2023-03-22T12:05:22;100348.25;;;17.32;61.66
15750;BME280;7976;52.526;13.326;2023-03-22T12:07:58;100356.81;;;17.36;61.54
15750;BME280;7976;52.526;13.326;2023-03-22T12:10:30;100350.91;;;17.32;60.96
15750;BME280;7976;52.526;13.326;2023-03-22T12:13:02;100347.09;;;17.24;61.17
15750;BME280;7976;52.526;13.326;2023-03-22T12:15:35;100346.56;;;17.19;60.52
15750;BME280;7976;52.526;13.326;2023-03-22T12:18:12;100339.69;;;17.16;60.46
15750;BME280;7976;52.526;13.326;2023-03-22T12:20:50;100338.31;;;17.23;60.88
15750;BME280;7976;52.526;13.326;2023-03-22T12:23:21;100323.47;;;17.33;60.62
15750;BME280;7976;52.526;13.326;2023-03-22T12:25:56;100325.28;;;17.45;60.32
15750;BME280;7976;52.526;13.326;2023-03-22T12:28:30;100321.75;;;17.45;59.94
15750;BME280;7976;52.526;13.326;2023-03-22T12:30:59;100326.63;;;17.38;59.99
15750;BME280;7976;52.526;13.326;2023-03-22T12:33:31;100319.38;;;17.29;60.42
15750;BME280;7976;52.526;13.326;2023-03-22T12:36:05;100319.16;;;17.20;60.24
15750;BME280;7976;52.526;13.326;2023-03-22T12:38:40;100312.41;;;17.16;60.64
15750;BME280;7976;52.526;13.326;2023-03-22T12:41:14;100308.28;;;17.12;60.58
15750;BME280;7976;52.526;13.326;2023-03-22T12:43:49;100299.38;;;17.25;60.68
15750;BME280;7976;52.526;13.326;2023-03-22T12:46:20;100300.16;;;17.38;60.25
15750;BME280;7976;52.526;13.326;2023-03-22T12:48:51;100297.09;;;17.44;59.81
15750;BME280;7976;52.526;13.326;2023-03-22T12:51:21;100292.25;;;17.51;59.60
15750;BME280;7976;52.526;13.326;2023-03-22T12:53:53;100298.16;;;17.55;59.53
15750;BME280;7976;52.526;13.326;2023-03-22T12:56:26;100291.16;;;17.53;59.81
15750;BME280;7976;52.526;13.326;2023-03-22T12:59:00;100292.75;;;17.43;59.73
15750;BME280;7976;52.526;13.326;2023-03-22T13:01:34;100283.28;;;17.28;59.89
15750;BME280;7976;52.526;13.326;2023-03-22T13:04:29;100286.72;;;17.18;60.60
15750;BME280;7976;52.526;13.326;2023-03-22T13:07:12;100292.75;;;17.07;60.86
15750;BME280;7976;52.526;13.326;2023-03-22T13:09:42;100290.53;;;17.01;61.31
15750;BME280;7976;52.526;13.326;2023-03-22T13:12:32;100293.63;;;16.95;61.55
15750;BME280;7976;52.526;13.326;2023-03-22T13:17:44;100292.31;;;17.13;60.90
15750;BME280;7976;52.526;13.326;2023-03-22T13:20:27;100277.75;;;17.31;60.55
15750;BME280;7976;52.526;13.326;2023-03-22T13:23:25;100283.38;;;17.27;60.46
15750;BME280;7976;52.526;13.326;2023-03-22T13:26:02;100281.50;;;17.16;59.95
15750;BME280;7976;52.526;13.326;2023-03-22T13:28:31;100281.31;;;17.19;60.00
15750;BME280;7976;52.526;13.326;2023-03-22T13:31:03;100277.56;;;17.34;59.65